Time;durP1;ratioP1;P1;durP2;ratioP2;P2;SDS_P1;SDS_P2;PMS_P1;PMS_P2;Temp;Humidity;BMP_temperature;BMP_pressure;BME280_temperature;BME280_humidity;BME280_pressure;Samples;Min_cycle;Max_cycle;Signal;HPM_P1;HPM_P2
2023/08/30 00:00:34;;;;;;;7.05;6.35;;;;;;;14.53;100.00;100800.06;5285609;28;20123;-72
2023/08/30 00:03:06;;;;;;;7.97;6.97;;;;;;;14.54;100.00;100796.44;5287168;28;20069;-72
2023/08/30 00:05:41;;;;;;;9.00;6.70;;;;;;;14.57;100.00;100793.47;5279786;28;20084;-72
2023/08/30 00:08:13;;;;;;;8.35;7.45;;;;;;;14.45;100.00;100792.91;5279476;28;20505;-72
2023/08/30 00:10:45;;;;;;;7.20;6.50;;;;;;;14.49;100.00;100793.41;5282092;28;20020;-70
2023/08/30 00:13:17;;;;;;;8.15;7.25;;;;;;;14.46;100.00;100794.53;5280910;28;20040;-70
2023/08/30 00:15:49;;;;;;;6.82;6.13;;;;;;;14.43;100.00;100794.84;5285478;28;20619;-72
2023/08/30 00:18:20;;;;;;;8.82;7.30;;;;;;;14.41;100.00;100788.94;5285766;28;20093;-72
2023/08/30 00:20:53;;;;;;;10.35;6.88;;;;;;;14.41;100.00;100794.19;5276799;28;20028;-71
2023/08/30 00:23:25;;;;;;;8.15;7.07;;;;;;;14.47;100.00;100783.03;5282197;28;20028;-72
2023/08/30 00:25:56;;;;;;;8.93;6.60;;;;;;;14.42;100.00;100787.94;5284859;28;20024;-71
2023/08/30 00:28:27;;;;;;;7.30;6.47;;;;;;;14.41;100.00;100791.56;5282124;28;20078;-72
2023/08/30 00:30:58;;;;;;;7.70;6.57;;;;;;;14.42;100.00;100782.66;5286511;28;20024;-72
2023/08/30 00:33:30;;;;;;;8.52;7.22;;;;;;;14.39;100.00;100782.16;5278948;28;20032;-72
2023/08/30 00:36:01;;;;;;;7.75;7.05;;;;;;;14.39;100.00;100782.16;5282148;28;20103;-71
2023/08/30 00:38:33;;;;;;;9.10;7.03;;;;;;;14.39;100.00;100779.50;5279319;28;20016;-71
2023/08/30 00:41:05;;;;;;;8.67;6.77;;;;;;;14.38;100.00;100777.88;5280015;28;20036;-69
2023/08/30 00:43:36;;;;;;;7.00;6.30;;;;;;;14.34;100.00;100769.44;5276716;28;20298;-72
2023/08/30 00:46:07;;;;;;;8.23;6.97;;;;;;;14.35;100.00;100771.09;5281977;28;20027;-72
2023/08/30 00:48:38;;;;;;;7.78;6.93;;;;;;;14.33;100.00;100765.16;5287769;28;20024;-71
2023/08/30 00:51:10;;;;;;;7.70;6.88;;;;;;;14.30;100.00;100758.38;5279396;28;20262;-72
2023/08/30 00:53:42;;;;;;;10.73;6.18;;;;;;;14.25;100.00;100760.69;5280957;28;20033;-72
2023/08/30 00:56:14;;;;;;;7.65;6.55;;;;;;;14.19;100.00;100763.09;5279732;28;20024;-70
2023/08/30 00:58:47;;;;;;;7.15;6.45;;;;;;;14.24;100.00;100756.38;5278412;28;20055;-71
2023/08/30 01:01:19;;;;;;;6.97;5.95;;;;;;;14.22;100.00;100753.06;5262888;28;20055;-70
2023/08/30 01:03:50;;;;;;;7.50;6.70;;;;;;;14.22;100.00;100754.88;5284656;28;20087;-71
2023/08/30 01:06:22;;;;;;;6.65;5.95;;;;;;;14.19;100.00;100749.94;5276039;28;20149;-72
2023/08/30 01:08:53;;;;;;;7.70;6.43;;;;;;;14.11;100.00;100743.63;5280295;28;20027;-72
2023/08/30 01:11:48;;;;;;;7.38;6.32;;;;;;;14.44;100.00;100749.06;5275395;28;20035;-72
2023/08/30 01:14:30;;;;;;;7.65;6.78;;;;;;;14.28;100.00;100746.34;5282395;28;20377;-70
2023/08/30 01:17:02;;;;;;;7.35;6.50;;;;;;;14.04;100.00;100741.75;5282554;28;20016;-72
2023/08/30 01:19:49;;;;;;;14.07;6.30;;;;;;;14.28;100.00;100747.19;5276687;28;20533;-70
2023/08/30 01:22:29;;;;;;;9.40;6.78;;;;;;;14.14;100.00;100745.13;5255514;28;20028;-72
2023/08/30 01:25:15;;;;;;;7.35;6.55;;;;;;;14.24;100.00;100739.72;5277932;28;20039;-71
2023/08/30 01:27:49;;;;;;;7.47;6.75;;;;;;;14.03;100.00;100730.41;5277417;28;20039;-70
2023/08/30 01:30:21;;;;;;;8.50;6.60;;;;;;;14.03;100.00;100745.38;5279725;28;20265;-72
2023/08/30 01:32:54;;;;;;;8.73;6.70;;;;;;;14.02;100.00;100741.09;5267787;28;20711;-71
2023/08/30 01:35:30;;;;;;;8.00;6.20;;;;;;;14.00;100.00;100737.78;5278072;28;20025;-72
2023/08/30 01:38:03;;;;;;;8.98;6.82;;;;;;;13.97;100.00;100735.47;5283218;28;20048;-71
2023/08/30 01:40:40;;;;;;;7.60;6.78;;;;;;;14.12;100.00;100741.81;5280968;28;20486;-72
2023/08/30 01:43:13;;;;;;;7.38;6.55;;;;;;;13.98;100.00;100739.75;5282189;28;20199;-72
2023/08/30 01:45:44;;;;;;;9.40;6.78;;;;;;;13.97;100.00;100741.56;5273231;28;20074;-72
2023/08/30 01:48:17;;;;;;;8.40;6.63;;;;;;;13.96;100.00;100739.09;5283183;28;20119;-72
2023/08/30 01:50:48;;;;;;;8.13;7.05;;;;;;;13.93;100.00;100737.56;5284077;28;20048;-72
2023/08/30 01:53:20;;;;;;;7.93;6.40;;;;;;;13.87;100.00;100731.13;5278307;28;20078;-71
2023/08/30 01:55:52;;;;;;;9.68;6.63;;;;;;;13.86;100.00;100726.00;5282866;28;20147;-72
2023/08/30 01:58:23;;;;;;;7.25;6.53;;;;;;;13.74;100.00;100714.06;5271551;28;20481;-72
2023/08/30 02:00:55;;;;;;;7.57;6.35;;;;;;;13.79;100.00;100741.63;5279492;28;20027;-71
2023/08/30 02:03:26;;;;;;;7.40;6.40;;;;;;;13.74;100.00;100733.31;5276166;28;20444;-72
2023/08/30 02:06:06;;;;;;;7.32;6.40;;;;;;;13.81;100.00;100723.84;5274905;28;20024;-72
2023/08/30 02:09:02;;;;;;;7.45;6.55;;;;;;;13.92;100.00;100735.09;5271851;28;20028;-72
2023/08/30 02:11:35;;;;;;;7.28;5.97;;;;;;;13.68;100.00;100733.97;5278516;28;20017;-70
2023/08/30 02:14:11;;;;;;;7.72;6.43;;;;;;;13.82;100.00;100733.38;5275219;28;20024;-71
2023/08/30 02:16:43;;;;;;;8.73;6.53;;;;;;;13.69;100.00;100729.50;5276489;28;20075;-69
2023/08/30 02:19:20;;;;;;;7.50;6.15;;;;;;;13.64;100.00;100724.72;5273352;28;20363;-71
2023/08/30 02:21:52;;;;;;;8.57;6.35;;;;;;;13.64;100.00;100722.09;5273609;28;20016;-72
2023/08/30 02:24:23;;;;;;;8.30;6.38;;;;;;;13.63;100.00;100709.88;5276237;28;20497;-72
2023/08/30 02:26:54;;;;;;;8.27;6.55;;;;;;;13.69;100.00;100716.34;5272768;28;20020;-72
2023/08/30 02:29:25;;;;;;;8.68;6.30;;;;;;;13.71;100.00;100715.19;5273111;28;20420;-72
2023/08/30 02:31:57;;;;;;;7.22;6.50;;;;;;;13.78;100.00;100704.88;5272881;28;20485;-71
2023/08/30 02:34:29;;;;;;;8.13;6.97;;;;;;;13.82;100.00;100712.31;5281237;28;20141;-72
2023/08/30 02:37:00;;;;;;;7.80;7.05;;;;;;;13.85;100.00;100705.91;5275692;28;20115;-70
2023/08/30 02:39:31;;;;;;;12.00;7.70;;;;;;;13.93;100.00;100705.16;5276287;28;20056;-70
2023/08/30 02:42:02;;;;;;;10.45;7.70;;;;;;;13.94;100.00;100696.25;5275818;28;20043;-71
2023/08/30 02:44:34;;;;;;;10.85;7.82;;;;;;;13.99;100.00;100708.00;5277785;28;20032;-72
2023/08/30 02:47:05;;;;;;;14.13;8.90;;;;;;;14.03;100.00;100701.44;5280952;28;20042;-72
2023/08/30 02:49:36;;;;;;;11.70;8.43;;;;;;;14.07;100.00;100704.56;5277974;28;20050;-72
2023/08/30 02:52:08;;;;;;;9.60;8.48;;;;;;;14.10;100.00;100705.09;5278101;28;20404;-72
2023/08/30 02:54:39;;;;;;;11.43;8.02;;;;;;;14.15;100.00;100699.34;5275015;28;20031;-72
2023/08/30 02:57:10;;;;;;;9.23;8.20;;;;;;;14.17;100.00;100696.53;5281398;28;20028;-72
2023/08/30 02:59:41;;;;;;;8.77;7.88;;;;;;;14.18;100.00;100695.59;5281179;28;20016;-70
2023/08/30 03:02:13;;;;;;;9.05;8.15;;;;;;;14.20;100.00;100688.34;5278021;28;20092;-72
2023/08/30 03:04:44;;;;;;;9.32;8.40;;;;;;;14.22;100.00;100684.56;5273094;28;20626;-72
2023/08/30 03:07:15;;;;;;;10.00;8.27;;;;;;;14.23;100.00;100680.94;5278285;28;20084;-72
2023/08/30 03:09:52;;;;;;;9.38;8.32;;;;;;;14.35;100.00;100684.94;5272593;28;20025;-72
2023/08/30 03:12:24;;;;;;;10.77;8.43;;;;;;;14.23;100.00;100686.22;5274397;28;20569;-72
2023/08/30 03:14:55;;;;;;;10.27;9.13;;;;;;;14.26;100.00;100687.72;5281121;28;20020;-72
2023/08/30 03:17:26;;;;;;;10.32;9.23;;;;;;;14.29;100.00;100684.78;5271745;28;20025;-72
2023/08/30 03:19:58;;;;;;;12.20;9.35;;;;;;;14.28;100.00;100688.38;5281594;28;20030;-71
2023/08/30 03:22:31;;;;;;;9.85;8.25;;;;;;;14.28;100.00;100676.03;5272092;28;20358;-72
2023/08/30 03:25:03;;;;;;;12.10;8.50;;;;;;;14.31;100.00;100680.97;5261459;28;20077;-72
2023/08/30 03:27:35;;;;;;;9.90;8.90;;;;;;;14.27;100.00;100669.09;5275482;28;20046;-72
2023/08/30 03:30:07;;;;;;;10.07;8.32;;;;;;;14.30;100.00;100668.78;5273030;28;20027;-71
2023/08/30 03:32:38;;;;;;;9.55;8.45;;;;;;;14.32;100.00;100671.28;5278704;28;20033;-72
2023/08/30 03:35:09;;;;;;;8.85;7.95;;;;;;;14.33;100.00;100660.56;5277059;28;20020;-72
2023/08/30 03:37:41;;;;;;;9.35;8.45;;;;;;;14.34;100.00;100662.22;5276486;28;20028;-72
2023/08/30 03:40:12;;;;;;;9.00;7.95;;;;;;;14.37;100.00;100647.91;5272580;28;20032;-70
2023/08/30 03:42:43;;;;;;;9.13;8.15;;;;;;;14.39;100.00;100639.81;5280660;28;20047;-70
2023/08/30 03:45:14;;;;;;;10.75;8.60;;;;;;;14.40;100.00;100630.97;5280100;28;20028;-72
2023/08/30 03:47:46;;;;;;;10.10;9.00;;;;;;;14.34;100.00;100617.41;5269812;28;20024;-72
2023/08/30 03:50:17;;;;;;;9.52;8.50;;;;;;;14.45;100.00;100618.94;5274136;28;20126;-72
2023/08/30 03:52:48;;;;;;;10.15;9.15;;;;;;;14.48;100.00;100612.53;5277469;28;20056;-72
2023/08/30 03:55:21;;;;;;;11.27;9.23;;;;;;;14.48;100.00;100607.25;5274278;28;20029;-70
2023/08/30 03:57:52;;;;;;;12.30;9.50;;;;;;;14.53;100.00;100611.06;5278249;28;20028;-71
2023/08/30 04:00:23;;;;;;;10.63;9.52;;;;;;;14.42;100.00;100581.53;5278156;28;20779;-72
2023/08/30 04:02:54;;;;;;;9.70;8.45;;;;;;;14.51;100.00;100597.25;5274546;28;20500;-72
2023/08/30 04:05:25;;;;;;;12.45;9.00;;;;;;;14.48;100.00;100578.25;5255300;28;20457;-72
2023/08/30 04:07:57;;;;;;;10.50;9.43;;;;;;;14.49;100.00;100587.81;5283325;28;20381;-70
2023/08/30 04:10:28;;;;;;;9.93;8.93;;;;;;;14.49;100.00;100579.91;5280095;28;20583;-72
2023/08/30 04:12:59;;;;;;;10.13;9.20;;;;;;;14.46;100.00;100586.31;5273253;28;20730;-71
2023/08/30 04:15:35;;;;;;;10.93;9.50;;;;;;;14.60;100.00;100579.63;5282274;28;20439;-70
2023/08/30 04:18:06;;;;;;;10.55;8.93;;;;;;;14.49;100.00;100591.28;5279592;28;20077;-72
2023/08/30 04:20:43;;;;;;;11.15;9.30;;;;;;;14.60;100.00;100590.97;5266576;28;20028;-72
2023/08/30 04:23:15;;;;;;;11.02;9.10;;;;;;;14.48;100.00;100584.34;5279538;28;20026;-72
2023/08/30 04:25:46;;;;;;;10.40;8.60;;;;;;;14.54;100.00;100588.16;5280118;28;20386;-70
2023/08/30 04:28:17;;;;;;;9.25;8.35;;;;;;;14.58;100.00;100578.94;5274576;28;20036;-72
2023/08/30 04:30:48;;;;;;;12.70;9.15;;;;;;;14.58;100.00;100582.44;5278611;28;20031;-72
2023/08/30 04:33:20;;;;;;;11.00;9.27;;;;;;;14.57;100.00;100578.13;5271711;28;20109;-71
2023/08/30 04:35:52;;;;;;;10.13;9.18;;;;;;;14.60;100.00;100575.16;5274997;28;20196;-72
2023/08/30 04:38:23;;;;;;;9.90;8.95;;;;;;;14.64;100.00;100578.31;5280118;28;20392;-72
2023/08/30 04:40:59;;;;;;;10.23;8.85;;;;;;;14.74;100.00;100572.88;5274829;28;20032;-72
2023/08/30 04:43:30;;;;;;;10.13;9.13;;;;;;;14.67;100.00;100577.16;5273717;28;20035;-72
2023/08/30 04:46:02;;;;;;;10.60;9.32;;;;;;;14.71;100.00;100573.22;5276688;28;20013;-72
2023/08/30 04:48:33;;;;;;;11.93;8.68;;;;;;;14.75;100.00;100569.25;5284439;28;20028;-71
2023/08/30 04:51:05;;;;;;;10.35;9.27;;;;;;;14.76;100.00;100569.06;5283195;28;20051;-71
2023/08/30 04:53:36;;;;;;;9.43;8.40;;;;;;;14.72;100.00;100557.22;5283223;22;20058;-73
2023/08/30 04:56:12;;;;;;;11.15;9.02;;;;;;;14.86;100.00;100568.13;5265368;28;20124;-73
2023/08/30 04:58:44;;;;;;;10.57;9.35;;;;;;;14.77;100.00;100554.06;5255339;28;20035;-73
2023/08/30 05:01:15;;;;;;;11.48;8.82;;;;;;;14.80;100.00;100554.56;5254268;28;20032;-74
2023/08/30 05:03:47;;;;;;;11.80;8.85;;;;;;;14.84;100.00;100545.34;5246277;28;20583;-73
2023/08/30 05:06:18;;;;;;;11.40;9.38;;;;;;;14.85;100.00;100543.56;5255288;28;20021;-73
2023/08/30 05:08:49;;;;;;;10.88;9.75;;;;;;;14.80;100.00;100540.56;5252045;28;20079;-70
2023/08/30 05:11:21;;;;;;;10.93;9.20;;;;;;;14.90;100.00;100550.97;5253032;28;20029;-73
2023/08/30 05:13:54;;;;;;;12.48;9.70;;;;;;;14.91;100.00;100544.69;5256187;28;20409;-73
2023/08/30 05:16:25;;;;;;;12.18;8.95;;;;;;;14.92;100.00;100536.59;5248562;28;20503;-73
2023/08/30 05:18:56;;;;;;;10.38;8.90;;;;;;;14.95;100.00;100532.81;5253981;28;20032;-74
2023/08/30 05:21:27;;;;;;;9.75;8.85;;;;;;;14.97;100.00;100528.22;5253250;28;20035;-74
2023/08/30 05:23:59;;;;;;;11.30;9.07;;;;;;;14.97;100.00;100520.28;5252537;28;20032;-74
2023/08/30 05:26:30;;;;;;;9.93;8.23;;;;;;;15.05;100.00;100531.66;5254559;28;20052;-73
2023/08/30 05:29:02;;;;;;;10.23;9.18;;;;;;;15.08;100.00;100531.31;5256303;28;20103;-74
2023/08/30 05:31:33;;;;;;;12.37;8.63;;;;;;;15.13;100.00;100538.75;5252569;28;20032;-73
2023/08/30 05:34:05;;;;;;;12.23;8.82;;;;;;;15.15;100.00;100528.81;5250533;28;20029;-72
2023/08/30 05:36:36;;;;;;;10.18;9.18;;;;;;;15.19;100.00;100529.31;5252785;28;20033;-73
2023/08/30 05:39:07;;;;;;;11.27;9.88;;;;;;;15.17;100.00;100528.66;5250586;28;20025;-74
2023/08/30 05:41:39;;;;;;;11.38;9.32;;;;;;;15.23;100.00;100528.84;5249396;28;20052;-74
2023/08/30 05:44:10;;;;;;;12.75;9.35;;;;;;;15.22;100.00;100518.44;5249121;28;20033;-74
2023/08/30 05:46:41;;;;;;;10.85;8.70;;;;;;;15.29;100.00;100522.88;5254268;28;20483;-73
2023/08/30 05:49:13;;;;;;;11.15;9.40;;;;;;;15.30;100.00;100513.97;5251677;28;20484;-74
2023/08/30 05:51:44;;;;;;;9.65;8.65;;;;;;;15.36;100.00;100509.81;5251693;28;20445;-72
2023/08/30 05:54:15;;;;;;;10.48;7.95;;;;;;;15.39;100.00;100508.66;5255135;28;20615;-74
2023/08/30 05:56:46;;;;;;;12.38;8.57;;;;;;;15.45;100.00;100506.16;5255427;28;20115;-72
2023/08/30 05:59:18;;;;;;;10.38;8.70;;;;;;;15.50;100.00;100505.66;5250994;28;20103;-73
2023/08/30 06:01:49;;;;;;;9.93;8.75;;;;;;;15.52;100.00;100499.19;5248621;28;20397;-71
2023/08/30 06:04:20;;;;;;;9.68;8.70;;;;;;;15.58;100.00;100500.34;5236163;28;20572;-71
2023/08/30 06:06:51;;;;;;;11.82;8.40;;;;;;;15.62;100.00;100500.84;5238873;28;21298;-74
2023/08/30 06:09:23;;;;;;;10.40;9.38;;;;;;;15.64;100.00;100499.66;5247475;28;20552;-73
2023/08/30 06:11:54;;;;;;;9.43;8.52;;;;;;;15.60;100.00;100502.81;5252484;28;20074;-74
2023/08/30 06:14:26;;;;;;;10.00;7.90;;;;;;;15.64;100.00;100512.03;5249055;28;20691;-72
2023/08/30 06:16:57;;;;;;;12.13;8.82;;;;;;;15.65;100.00;100500.50;5246531;28;20486;-74
2023/08/30 06:19:28;;;;;;;10.18;8.73;;;;;;;15.67;100.00;100495.88;5250675;28;20047;-72
2023/08/30 06:21:59;;;;;;;13.52;9.10;;;;;;;15.72;100.00;100497.03;5244102;28;20040;-72
2023/08/30 06:24:31;;;;;;;11.00;8.60;;;;;;;15.75;100.00;100491.38;5249079;28;20036;-73
2023/08/30 06:27:02;;;;;;;9.75;8.52;;;;;;;15.78;100.00;100484.94;5252505;28;20039;-74
2023/08/30 06:29:33;;;;;;;10.30;8.45;;;;;;;15.77;100.00;100494.69;5245727;28;20032;-74
2023/08/30 06:32:05;;;;;;;10.07;8.27;;;;;;;15.75;100.00;100483.44;5250567;28;20052;-74
2023/08/30 06:34:36;;;;;;;10.27;8.07;;;;;;;15.80;100.00;100493.53;5247911;28;20040;-73
2023/08/30 06:37:08;;;;;;;9.35;8.45;;;;;;;15.84;100.00;100497.47;5251651;28;20086;-74
2023/08/30 06:39:39;;;;;;;10.60;8.70;;;;;;;15.86;100.00;100503.38;5247830;28;20036;-74
2023/08/30 06:42:11;;;;;;;13.25;8.93;;;;;;;15.84;100.00;100509.84;5252313;28;20493;-73
2023/08/30 06:44:42;;;;;;;12.40;9.10;;;;;;;15.86;100.00;100513.13;5247191;28;20048;-73
2023/08/30 06:47:14;;;;;;;9.93;8.93;;;;;;;15.91;100.00;100505.50;5249984;28;20020;-73
2023/08/30 06:49:45;;;;;;;10.05;9.02;;;;;;;15.88;100.00;100501.41;5246543;28;20655;-72
2023/08/30 06:52:16;;;;;;;11.52;9.30;;;;;;;15.87;100.00;100505.03;5246637;28;20028;-73
2023/08/30 06:54:48;;;;;;;10.13;9.13;;;;;;;15.81;100.00;100509.19;5249709;28;20045;-73
2023/08/30 06:57:19;;;;;;;9.70;8.73;;;;;;;15.85;100.00;100516.78;5247663;28;20036;-71
2023/08/30 06:59:50;;;;;;;10.30;9.20;;;;;;;15.76;100.00;100518.63;5250493;28;20147;-71
2023/08/30 07:02:21;;;;;;;10.63;9.63;;;;;;;15.76;100.00;100514.19;5245469;28;20047;-73
2023/08/30 07:04:53;;;;;;;12.13;9.00;;;;;;;15.70;100.00;100506.94;5244125;28;20021;-75
2023/08/30 07:07:24;;;;;;;10.85;9.23;;;;;;;15.69;100.00;100502.66;5247438;28;20033;-73
2023/08/30 07:09:55;;;;;;;11.85;9.77;;;;;;;15.68;100.00;100490.44;5241297;28;20086;-73
2023/08/30 07:12:27;;;;;;;12.32;8.23;;;;;;;15.68;100.00;100473.75;5241298;28;20195;-75
2023/08/30 07:14:58;;;;;;;13.63;8.20;;;;;;;15.60;100.00;100469.31;5246210;28;20033;-74
2023/08/30 07:17:29;;;;;;;11.63;8.35;;;;;;;15.59;100.00;100465.03;5249488;28;20024;-75
2023/08/30 07:20:01;;;;;;;9.45;8.02;;;;;;;15.53;100.00;100468.34;5244501;28;20032;-74
2023/08/30 07:22:32;;;;;;;8.77;7.28;;;;;;;15.47;100.00;100459.28;5247758;28;20025;-75
2023/08/30 07:25:04;;;;;;;8.57;7.38;;;;;;;15.46;100.00;100460.31;5245087;28;20025;-75
2023/08/30 07:27:35;;;;;;;9.10;7.90;;;;;;;15.44;100.00;100448.25;5240530;28;20037;-75
2023/08/30 07:30:07;;;;;;;8.18;7.35;;;;;;;15.45;100.00;100469.19;5244371;28;20053;-75
2023/08/30 07:32:38;;;;;;;8.30;7.15;;;;;;;15.44;100.00;100456.19;5245967;28;20045;-73
2023/08/30 07:35:10;;;;;;;9.73;7.03;;;;;;;15.42;100.00;100448.44;5243147;28;20030;-72
2023/08/30 07:37:41;;;;;;;8.98;6.97;;;;;;;15.47;100.00;100453.19;5242537;28;20029;-74
2023/08/30 07:40:12;;;;;;;6.95;6.22;;;;;;;15.49;100.00;100453.84;5244988;28;20036;-74
2023/08/30 07:42:44;;;;;;;7.10;6.35;;;;;;;15.50;100.00;100452.88;5238919;28;20027;-75
2023/08/30 07:45:15;;;;;;;6.68;5.90;;;;;;;15.44;100.00;100440.34;5245950;28;20075;-74
2023/08/30 07:47:46;;;;;;;7.22;5.68;;;;;;;15.49;100.00;100444.13;5245327;28;20107;-74
2023/08/30 07:50:18;;;;;;;6.97;5.93;;;;;;;15.45;100.00;100441.97;5244644;28;20029;-75
2023/08/30 07:52:49;;;;;;;6.78;5.50;;;;;;;15.53;100.00;100444.56;5244620;28;20040;-71
2023/08/30 07:55:20;;;;;;;9.75;6.38;;;;;;;15.51;100.00;100436.03;5245979;28;20457;-74
2023/08/30 07:57:51;;;;;;;9.90;5.78;;;;;;;15.50;100.00;100442.31;5245273;28;20429;-73
2023/08/30 08:00:22;;;;;;;7.30;6.20;;;;;;;15.47;100.00;100437.34;5247205;28;20041;-75
2023/08/30 08:02:54;;;;;;;5.97;5.30;;;;;;;15.54;100.00;100438.31;5249708;28;20024;-74
2023/08/30 08:05:25;;;;;;;7.30;5.72;;;;;;;15.57;100.00;100441.44;5262686;28;20060;-74
2023/08/30 08:07:59;;;;;;;6.10;5.22;;;;;;;15.61;100.00;100441.06;5263641;28;20020;-75
2023/08/30 08:10:34;;;;;;;5.93;5.38;;;;;;;15.69;100.00;100441.91;5258612;28;20033;-75
2023/08/30 08:13:05;;;;;;;6.88;5.53;;;;;;;15.66;100.00;100444.06;5263906;28;20516;-75
2023/08/30 08:15:36;;;;;;;9.40;5.53;;;;;;;15.64;100.00;100441.56;5264875;28;20046;-75
2023/08/30 08:18:08;;;;;;;5.30;4.60;;;;;;;15.57;100.00;100446.72;5265010;28;20055;-74
2023/08/30 08:20:39;;;;;;;6.55;5.43;;;;;;;15.61;100.00;100455.13;5266330;28;20978;-75
2023/08/30 08:23:10;;;;;;;5.80;5.20;;;;;;;15.63;100.00;100454.94;5270786;28;20028;-72
2023/08/30 08:25:41;;;;;;;7.28;5.13;;;;;;;15.71;100.00;100449.63;5268655;28;20131;-75
2023/08/30 08:28:13;;;;;;;5.25;4.45;;;;;;;15.67;100.00;100451.81;5257820;28;20028;-74
2023/08/30 08:30:45;;;;;;;5.95;4.00;;;;;;;15.60;100.00;100434.16;5264056;28;20017;-74
2023/08/30 08:33:17;;;;;;;5.05;4.00;;;;;;;15.64;100.00;100452.13;5264359;28;20097;-73
2023/08/30 08:35:49;;;;;;;5.28;4.22;;;;;;;15.69;100.00;100449.00;5261557;28;20047;-75
2023/08/30 08:38:20;;;;;;;4.60;4.07;;;;;;;15.68;100.00;100445.56;5261076;28;20301;-74
2023/08/30 08:41:05;;;;;;;5.25;3.92;;;;;;;15.87;100.00;100440.81;5268907;28;20039;-75
2023/08/30 08:43:37;;;;;;;4.93;4.28;;;;;;;15.76;100.00;100448.13;5268023;28;20073;-75
2023/08/30 08:46:09;;;;;;;6.55;4.25;;;;;;;15.79;100.00;100444.31;5260570;28;20016;-72
2023/08/30 08:48:43;;;;;;;4.68;3.47;;;;;;;15.87;100.00;100443.44;5266943;28;20033;-75
2023/08/30 08:51:15;;;;;;;6.28;4.07;;;;;;;15.86;100.00;100439.16;5264050;28;20020;-74
2023/08/30 08:53:47;;;;;;;5.80;3.50;;;;;;;15.75;100.00;100429.81;5266910;28;20052;-74
2023/08/30 08:56:19;;;;;;;5.50;3.60;;;;;;;15.90;100.00;100454.47;5260173;28;20033;-74
2023/08/30 08:58:51;;;;;;;5.80;3.50;;;;;;;15.99;100.00;100442.06;5267344;28;20355;-73
2023/08/30 09:01:24;;;;;;;4.63;3.53;;;;;;;16.03;100.00;100440.72;5263844;28;20032;-74
2023/08/30 09:03:56;;;;;;;4.15;3.75;;;;;;;16.04;100.00;100440.53;5270344;28;20604;-73
2023/08/30 09:06:28;;;;;;;4.75;3.90;;;;;;;16.22;100.00;100447.34;5270584;28;20028;-75
2023/08/30 09:09:01;;;;;;;4.32;3.53;;;;;;;16.21;100.00;100432.47;5265903;28;20024;-75
2023/08/30 09:11:32;;;;;;;6.30;3.92;;;;;;;16.44;100.00;100445.69;5269486;28;20085;-73
2023/08/30 09:14:04;;;;;;;6.15;4.07;;;;;;;16.61;100.00;100443.72;5269962;28;20044;-74
2023/08/30 09:16:35;;;;;;;4.70;3.95;;;;;;;16.72;100.00;100438.00;5264388;28;20388;-74
2023/08/30 09:19:07;;;;;;;4.25;3.70;;;;;;;16.81;100.00;100431.66;5263640;28;20032;-75
2023/08/30 09:21:38;;;;;;;6.17;4.30;;;;;;;16.98;100.00;100429.66;5264884;28;20033;-72
2023/08/30 09:24:10;;;;;;;4.45;3.88;;;;;;;16.88;100.00;100422.00;5266642;28;20343;-75
2023/08/30 09:26:50;;;;;;;4.22;3.53;;;;;;;16.98;100.00;100433.13;5264578;28;20030;-74
2023/08/30 09:29:25;;;;;;;4.50;3.92;;;;;;;16.92;100.00;100449.72;5265914;28;20039;-73
2023/08/30 09:31:56;;;;;;;4.10;3.63;;;;;;;16.94;100.00;100441.63;5266126;28;20036;-74
2023/08/30 09:34:28;;;;;;;4.63;3.85;;;;;;;17.03;100.00;100444.00;5254965;28;20036;-75
2023/08/30 09:37:01;;;;;;;5.15;4.05;;;;;;;17.00;100.00;100431.13;5263712;28;20074;-76
2023/08/30 09:39:33;;;;;;;4.72;3.92;;;;;;;17.14;100.00;100440.06;5269606;28;20036;-76
2023/08/30 09:42:04;;;;;;;4.55;4.10;;;;;;;17.25;100.00;100444.91;5263899;28;20024;-74
2023/08/30 09:44:36;;;;;;;5.20;4.05;;;;;;;17.34;100.00;100448.28;5268427;28;20083;-74
2023/08/30 09:47:07;;;;;;;5.50;4.38;;;;;;;17.30;100.00;100441.69;5267917;28;20782;-74
2023/08/30 09:49:50;;;;;;;5.68;4.97;;;;;;;17.58;100.00;100447.16;5267948;28;20024;-75
2023/08/30 09:52:24;;;;;;;5.50;4.97;;;;;;;17.59;100.00;100445.34;5266432;28;20036;-76
2023/08/30 09:54:56;;;;;;;6.13;5.25;;;;;;;17.69;100.00;100437.91;5269099;28;20511;-74
2023/08/30 09:57:28;;;;;;;5.65;5.15;;;;;;;17.96;100.00;100437.22;5269368;28;20024;-75
2023/08/30 10:00:00;;;;;;;5.75;5.32;;;;;;;18.02;100.00;100440.13;5272611;28;20033;-73
2023/08/30 10:02:33;;;;;;;7.05;6.35;;;;;;;18.12;100.00;100441.47;5264521;28;20488;-75
2023/08/30 10:05:05;;;;;;;6.45;5.85;;;;;;;18.22;100.00;100434.00;5267579;28;20131;-74
2023/08/30 10:07:38;;;;;;;5.75;5.25;;;;;;;18.40;100.00;100414.97;5268036;28;20028;-76
2023/08/30 10:10:10;;;;;;;6.15;5.65;;;;;;;18.60;100.00;100424.91;5265312;28;20032;-75
2023/08/30 10:12:45;;;;;;;6.35;5.82;;;;;;;18.79;100.00;100424.28;5268415;28;20029;-76
2023/08/30 10:15:16;;;;;;;6.68;6.03;;;;;;;18.82;100.00;100417.75;5266974;28;20025;-73
2023/08/30 10:17:52;;;;;;;6.95;6.25;;;;;;;18.93;100.00;100414.56;5263978;28;20488;-76
2023/08/30 10:20:24;;;;;;;6.18;5.60;;;;;;;19.07;100.00;100421.59;5266250;28;20067;-76
2023/08/30 10:22:58;;;;;;;6.53;5.97;;;;;;;19.29;100.00;100413.53;5270078;28;20024;-76
2023/08/30 10:25:32;;;;;;;6.55;5.95;;;;;;;19.22;100.00;100415.34;5268616;28;20466;-75
2023/08/30 10:28:04;;;;;;;6.60;6.00;;;;;;;19.31;100.00;100409.66;5265038;28;20044;-72
2023/08/30 10:30:35;;;;;;;6.25;5.65;;;;;;;19.40;100.00;100419.09;5268207;28;20024;-76
2023/08/30 10:33:13;;;;;;;6.27;5.67;;;;;;;19.65;100.00;100416.75;5267206;28;20063;-75
2023/08/30 10:35:49;;;;;;;6.85;6.25;;;;;;;19.73;100.00;100404.31;5266916;28;20020;-74
2023/08/30 10:38:28;;;;;;;6.35;5.75;;;;;;;19.83;100.00;100410.06;5266663;28;20082;-76
2023/08/30 10:41:07;;;;;;;6.20;5.63;;;;;;;19.94;100.00;100409.47;5260685;28;20036;-76
2023/08/30 10:43:38;;;;;;;6.10;5.55;;;;;;;19.87;100.00;100404.13;5262139;28;20082;-76
2023/08/30 10:46:11;;;;;;;6.05;5.32;;;;;;;20.14;100.00;100412.16;5249081;28;20024;-76
2023/08/30 10:48:43;;;;;;;5.30;4.82;;;;;;;20.01;100.00;100410.31;5259443;28;20487;-75
2023/08/30 10:51:24;;;;;;;4.90;4.40;;;;;;;20.24;100.00;100407.25;5267863;28;20082;-74
2023/08/30 10:53:57;;;;;;;5.30;4.80;;;;;;;20.38;100.00;100402.72;5268800;28;20056;-73
2023/08/30 10:56:34;;;;;;;5.00;4.45;;;;;;;20.57;100.00;100401.13;5260663;28;20024;-75
2023/08/30 10:59:15;;;;;;;4.47;3.92;;;;;;;20.85;100.00;100400.88;5263271;28;20036;-73
2023/08/30 11:01:48;;;;;;;4.50;4.10;;;;;;;20.55;100.00;100408.50;5263230;28;20020;-74
2023/08/30 11:04:22;;;;;;;3.90;3.50;;;;;;;20.55;100.00;100422.63;5265947;28;20036;-76
2023/08/30 11:06:55;;;;;;;5.22;3.78;;;;;;;20.59;100.00;100410.53;5248477;28;20062;-76
2023/08/30 11:09:26;;;;;;;;;;;;;;;21.49;100.00;100399.25;5263958;28;20025;-74
2023/08/30 11:12:04;;;;;;;4.75;3.03;;;;;;;21.21;100.00;100386.22;5264757;28;19916;-75
2023/08/30 11:14:40;;;;;;;5.72;3.47;;;;;;;21.29;100.00;100397.47;5267040;28;20032;-77
2023/08/30 11:17:11;;;;;;;7.68;3.17;;;;;;;21.32;100.00;100397.03;5261513;28;20387;-76
2023/08/30 11:19:43;;;;;;;4.03;2.53;;;;;;;21.53;100.00;100403.13;5262139;28;20036;-74
2023/08/30 11:22:16;;;;;;;4.40;3.30;;;;;;;21.48;100.00;100403.78;5250443;28;20469;-75
2023/08/30 11:24:49;;;;;;;4.60;2.92;;;;;;;21.29;100.00;100401.97;5272152;28;20111;-75
2023/08/30 11:27:20;;;;;;;5.20;3.00;;;;;;;21.01;100.00;100403.09;5268852;28;20113;-77
2023/08/30 11:29:51;;;;;;;6.70;3.13;;;;;;;20.90;100.00;100419.72;5262063;28;20062;-76
2023/08/30 11:32:22;;;;;;;4.63;2.60;;;;;;;20.89;100.00;100426.88;5258750;28;20032;-76
2023/08/30 11:34:57;;;;;;;7.37;3.07;;;;;;;20.73;100.00;100426.50;5257581;28;20087;-72
2023/08/30 11:37:29;;;;;;;7.85;2.83;;;;;;;20.70;100.00;100416.28;5259518;28;20554;-76